Time;durP1;ratioP1;P1;durP2;ratioP2;P2;SDS_P1;SDS_P2;PMS_P1;PMS_P2;Temp;Humidity;BMP_temperature;BMP_pressure;BME280_temperature;BME280_humidity;BME280_pressure;Samples;Min_cycle;Max_cycle;Signal;HPM_P1;HPM_P2
2023/12/29 00:01:35;;;;;;;;;;;;;;;;;;5074783;28;19925;-71
2023/12/29 00:04:01;;;;;;;;;;;;;;;;;;5081457;28;19973;-72
2023/12/29 00:06:27;;;;;;;;;;;;;;;;;;5079006;28;19920;-73
2023/12/29 00:08:53;;;;;;;;;;;;;;;;;;5077887;28;19928;-74
2023/12/29 00:11:19;;;;;;;;;;;;;;;;;;5079657;28;19924;-72
2023/12/29 00:13:45;;;;;;;;;;;;;;;;;;5081511;28;20002;-73
2023/12/29 00:16:11;;;;;;;;;;;;;;;;;;5076878;28;20393;-73
2023/12/29 00:18:37;;;;;;;;;;;;;;;;;;5074231;28;20023;-73
2023/12/29 00:21:03;;;;;;;;;;;;;;;;;;5073497;28;20035;-72
2023/12/29 00:23:28;;;;;;;;;;;;;;;;;;5077294;28;19967;-71
2023/12/29 00:25:54;;;;;;;;;;;;;;;;;;5087130;28;19931;-72
2023/12/29 00:28:20;;;;;;;;;;;;;;;;;;5078714;28;19928;-72
2023/12/29 00:30:46;;;;;;;;;;;;;;;;;;5081476;28;20537;-72
2023/12/29 00:33:12;;;;;;;;;;;;;;;;;;5079319;28;20438;-72
2023/12/29 00:35:41;;;;;;;;;;;;;;;;;;5079057;28;20369;-72
2023/12/29 00:38:07;;;;;;;;;;;;;;;;;;5064347;28;19924;-72
2023/12/29 00:40:33;;;;;;;;;;;;;;;;;;5075470;28;19931;-69
2023/12/29 00:42:59;;;;;;;;;;;;;;;;;;5081089;28;19970;-68
2023/12/29 00:45:25;;;;;;;;;;;;;;;;;;5063392;28;20377;-69
2023/12/29 00:47:51;;;;;;;;;;;;;;;;;;5077792;28;19924;-69
2023/12/29 00:50:17;;;;;;;;;;;;;;;;;;5076507;28;19971;-69
2023/12/29 00:52:43;;;;;;;;;;;;;;;;;;5079166;28;19968;-69
2023/12/29 00:55:09;;;;;;;;;;;;;;;;;;5063690;28;19924;-68
2023/12/29 00:57:35;;;;;;;;;;;;;;;;;;5078452;28;20004;-68
2023/12/29 01:00:02;;;;;;;;;;;;;;;;;;5077633;28;19928;-68
2023/12/29 01:02:28;;;;;;;;;;;;;;;;;;5075803;28;20014;-69
2023/12/29 01:04:54;;;;;;;;;;;;;;;;;;5076135;28;19927;-68
2023/12/29 01:07:19;;;;;;;;;;;;;;;;;;5063682;28;20384;-68
2023/12/29 01:09:45;;;;;;;;;;;;;;;;;;5079538;28;20369;-69
2023/12/29 01:12:11;;;;;;;;;;;;;;;;;;5070137;28;20012;-68
2023/12/29 01:14:37;;;;;;;;;;;;;;;;;;5079324;28;19963;-69
2023/12/29 01:17:03;;;;;;;;;;;;;;;;;;5077745;28;19928;-68
2023/12/29 01:19:29;;;;;;;;;;;;;;;;;;5083635;28;19977;-69
2023/12/29 01:21:55;;;;;;;;;;;;;;;;;;5062199;28;19924;-69
2023/12/29 01:24:21;;;;;;;;;;;;;;;;;;5078668;28;19920;-68
2023/12/29 01:26:47;;;;;;;;;;;;;;;;;;5065205;28;19920;-69
2023/12/29 01:29:13;;;;;;;;;;;;;;;;;;5076540;28;19977;-69
2023/12/29 01:31:39;;;;;;;;;;;;;;;;;;5080562;28;19924;-69
2023/12/29 01:34:05;;;;;;;;;;;;;;;;;;5075166;28;19943;-69
2023/12/29 01:36:31;;;;;;;;;;;;;;;;;;5064313;28;19924;-68
2023/12/29 01:38:57;;;;;;;;;;;;;;;;;;5078652;28;20007;-68
2023/12/29 01:41:23;;;;;;;;;;;;;;;;;;5078515;28;19993;-69
2023/12/29 01:43:49;;;;;;;;;;;;;;;;;;5075861;28;19977;-69
2023/12/29 01:46:15;;;;;;;;;;;;;;;;;;5080671;28;19931;-68
2023/12/29 01:48:41;;;;;;;;;;;;;;;;;;5073859;28;19932;-68
2023/12/29 01:51:07;;;;;;;;;;;;;;;;;;5076775;28;20068;-68
2023/12/29 01:53:32;;;;;;;;;;;;;;;;;;5073477;28;20350;-69
2023/12/29 01:55:58;;;;;;;;;;;;;;;;;;5074688;28;19974;-68
2023/12/29 01:58:24;;;;;;;;;;;;;;;;;;5065822;28;19985;-69
2023/12/29 02:00:50;;;;;;;;;;;;;;;;;;5081189;28;20404;-69
2023/12/29 02:03:16;;;;;;;;;;;;;;;;;;5075359;28;20007;-68
2023/12/29 02:05:42;;;;;;;;;;;;;;;;;;5074528;28;19924;-69
2023/12/29 02:08:08;;;;;;;;;;;;;;;;;;5079533;28;20024;-68
2023/12/29 02:10:34;;;;;;;;;;;;;;;;;;5075789;28;19987;-68
2023/12/29 02:13:00;;;;;;;;;;;;;;;;;;5080480;28;20274;-68
2023/12/29 02:15:26;;;;;;;;;;;;;;;;;;5080393;28;19921;-68
2023/12/29 02:17:52;;;;;;;;;;;;;;;;;;5077071;28;21273;-68
2023/12/29 02:20:18;;;;;;;;;;;;;;;;;;5059718;28;19920;-68
2023/12/29 02:22:44;;;;;;;;;;;;;;;;;;5074308;28;20262;-68
2023/12/29 02:25:09;;;;;;;;;;;;;;;;;;5075854;28;19935;-69
2023/12/29 02:27:36;;;;;;;;;;;;;;;;;;5083749;28;19929;-68
2023/12/29 02:30:02;;;;;;;;;;;;;;;;;;5074315;28;19977;-69
2023/12/29 02:32:28;;;;;;;;;;;;;;;;;;5078186;28;19921;-68
2023/12/29 02:34:54;;;;;;;;;;;;;;;;;;5077939;28;20354;-68
2023/12/29 02:37:20;;;;;;;;;;;;;;;;;;5075033;28;19932;-69
2023/12/29 02:39:45;;;;;;;;;;;;;;;;;;5073942;28;19966;-69
2023/12/29 02:42:11;;;;;;;;;;;;;;;;;;5073743;28;19927;-68
2023/12/29 02:44:37;;;;;;;;;;;;;;;;;;5076015;28;19932;-68
2023/12/29 02:47:03;;;;;;;;;;;;;;;;;;5080291;28;19955;-69
2023/12/29 02:49:29;;;;;;;;;;;;;;;;;;5075454;28;19969;-68
2023/12/29 02:51:55;;;;;;;;;;;;;;;;;;5074007;28;19924;-69
2023/12/29 02:54:21;;;;;;;;;;;;;;;;;;5078591;28;19928;-69
2023/12/29 02:56:47;;;;;;;;;;;;;;;;;;5079629;28;19920;-68
2023/12/29 02:59:13;;;;;;;;;;;;;;;;;;5079196;28;19974;-68
2023/12/29 03:01:39;;;;;;;;;;;;;;;;;;5074150;28;19977;-69
2023/12/29 03:04:05;;;;;;;;;;;;;;;;;;5077123;28;19924;-69
2023/12/29 03:06:31;;;;;;;;;;;;;;;;;;5079008;28;19928;-69
2023/12/29 03:08:57;;;;;;;;;;;;;;;;;;5075299;28;20436;-70
2023/12/29 03:11:23;;;;;;;;;;;;;;;;;;5079387;28;19924;-69
2023/12/29 03:13:49;;;;;;;;;;;;;;;;;;5074631;28;20361;-70
2023/12/29 03:16:15;;;;;;;;;;;;;;;;;;5060819;28;19920;-69
2023/12/29 03:18:41;;;;;;;;;;;;;;;;;;5063690;28;19952;-68
2023/12/29 03:21:07;;;;;;;;;;;;;;;;;;5068958;28;19974;-69
2023/12/29 03:23:34;;;;;;;;;;;;;;;;;;5077831;28;19924;-68
2023/12/29 03:26:00;;;;;;;;;;;;;;;;;;5074026;28;19920;-69
2023/12/29 03:28:26;;;;;;;;;;;;;;;;;;5062250;28;19934;-66
2023/12/29 03:30:52;;;;;;;;;;;;;;;;;;5074534;28;19924;-67
2023/12/29 03:33:17;;;;;;;;;;;;;;;;;;5081781;28;19920;-67
2023/12/29 03:35:43;;;;;;;;;;;;;;;;;;5062450;28;19929;-66
2023/12/29 03:38:09;;;;;;;;;;;;;;;;;;5080741;28;19924;-67
2023/12/29 03:40:36;;;;;;;;;;;;;;;;;;5079125;28;19920;-67
2023/12/29 03:43:02;;;;;;;;;;;;;;;;;;5073156;28;20389;-67
2023/12/29 03:45:28;;;;;;;;;;;;;;;;;;5076477;28;19985;-67
2023/12/29 03:47:54;;;;;;;;;;;;;;;;;;5076671;28;19932;-66
2023/12/29 03:50:20;;;;;;;;;;;;;;;;;;5083362;28;19943;-66
2023/12/29 03:52:46;;;;;;;;;;;;;;;;;;5079858;28;20285;-67
2023/12/29 03:55:12;;;;;;;;;;;;;;;;;;5077777;28;19950;-67
2023/12/29 03:57:38;;;;;;;;;;;;;;;;;;5082145;28;19924;-67
2023/12/29 04:00:04;;;;;;;;;;;;;;;;;;5077771;28;19920;-66
2023/12/29 04:02:30;;;;;;;;;;;;;;;;;;5084001;28;20035;-67
2023/12/29 04:04:56;;;;;;;;;;;;;;;;;;5078770;28;20431;-67
2023/12/29 04:07:22;;;;;;;;;;;;;;;;;;5068440;28;19943;-67
2023/12/29 04:09:48;;;;;;;;;;;;;;;;;;5084258;28;20027;-67
2023/12/29 04:12:13;;;;;;;;;;;;;;;;;;5083840;28;20133;-67
2023/12/29 04:14:39;;;;;;;;;;;;;;;;;;5079918;28;20089;-66
2023/12/29 04:17:13;;;;;;;;;;;;;;;;;;5083087;28;19920;-67
2023/12/29 04:19:39;;;;;;;;;;;;;;;;;;5079757;28;20285;-67
2023/12/29 04:22:05;;;;;;;;;;;;;;;;;;5080897;28;19928;-68
2023/12/29 04:24:31;;;;;;;;;;;;;;;;;;5078754;28;19935;-70
2023/12/29 04:26:57;;;;;;;;;;;;;;;;;;5078933;28;20440;-70
2023/12/29 04:29:23;;;;;;;;;;;;;;;;;;5068046;28;19931;-70
2023/12/29 04:31:49;;;;;;;;;;;;;;;;;;5060460;28;19935;-70
2023/12/29 04:34:15;;;;;;;;;;;;;;;;;;5079760;28;19928;-70
2023/12/29 04:36:41;;;;;;;;;;;;;;;;;;5077980;28;19927;-70
2023/12/29 04:39:10;;;;;;;;;;;;;;;;;;5064019;28;20583;-69
2023/12/29 04:41:36;;;;;;;;;;;;;;;;;;5079135;28;20498;-69
2023/12/29 04:44:02;;;;;;;;;;;;;;;;;;5081523;28;19984;-68
2023/12/29 04:46:28;;;;;;;;;;;;;;;;;;5083648;28;20070;-68
2023/12/29 04:48:54;;;;;;;;;;;;;;;;;;5078723;28;19924;-68
2023/12/29 04:51:20;;;;;;;;;;;;;;;;;;5081714;28;19924;-69
2023/12/29 04:53:46;;;;;;;;;;;;;;;;;;5083203;28;19945;-68
2023/12/29 04:56:12;;;;;;;;;;;;;;;;;;5079741;28;19920;-68
2023/12/29 04:58:38;;;;;;;;;;;;;;;;;;5079559;28;19920;-68
2023/12/29 05:01:04;;;;;;;;;;;;;;;;;;5060936;28;19928;-69
2023/12/29 05:03:30;;;;;;;;;;;;;;;;;;5076754;28;20400;-69
2023/12/29 05:05:56;;;;;;;;;;;;;;;;;;5077841;28;19920;-69
2023/12/29 05:08:22;;;;;;;;;;;;;;;;;;5063493;28;19959;-70
2023/12/29 05:10:48;;;;;;;;;;;;;;;;;;5065218;28;19924;-68
2023/12/29 05:13:14;;;;;;;;;;;;;;;;;;5083646;28;19924;-68
2023/12/29 05:15:40;;;;;;;;;;;;;;;;;;5065539;28;19920;-69
2023/12/29 05:18:06;;;;;;;;;;;;;;;;;;5074708;28;19947;-69
2023/12/29 05:20:32;;;;;;;;;;;;;;;;;;5064727;28;20370;-68
2023/12/29 05:22:58;;;;;;;;;;;;;;;;;;5079088;28;19951;-69
2023/12/29 05:25:24;;;;;;;;;;;;;;;;;;5078993;28;19963;-69
2023/12/29 05:27:50;;;;;;;;;;;;;;;;;;5080538;28;19931;-69
2023/12/29 05:30:16;;;;;;;;;;;;;;;;;;5077725;28;19924;-70
2023/12/29 05:32:41;;;;;;;;;;;;;;;;;;5075252;28;20586;-69
2023/12/29 05:35:07;;;;;;;;;;;;;;;;;;5072886;28;19920;-70
2023/12/29 05:37:33;;;;;;;;;;;;;;;;;;5079210;28;19943;-70
2023/12/29 05:39:59;;;;;;;;;;;;;;;;;;5075276;28;19920;-70
2023/12/29 05:42:25;;;;;;;;;;;;;;;;;;5061708;28;19972;-70
2023/12/29 05:44:51;;;;;;;;;;;;;;;;;;5075828;28;20026;-69
2023/12/29 05:47:17;;;;;;;;;;;;;;;;;;5063138;28;19963;-69
2023/12/29 05:49:43;;;;;;;;;;;;;;;;;;5076644;28;19928;-68
2023/12/29 05:52:09;;;;;;;;;;;;;;;;;;5080093;28;19920;-69
2023/12/29 05:54:35;;;;;;;;;;;;;;;;;;5078805;28;20401;-69
2023/12/29 05:57:01;;;;;;;;;;;;;;;;;;5063525;28;19971;-69
2023/12/29 05:59:27;;;;;;;;;;;;;;;;;;5080020;28;19920;-69
2023/12/29 06:01:53;;;;;;;;;;;;;;;;;;5080495;28;19927;-69
2023/12/29 06:04:19;;;;;;;;;;;;;;;;;;5082910;28;20273;-69
2023/12/29 06:06:45;;;;;;;;;;;;;;;;;;5084879;28;19928;-69
2023/12/29 06:09:11;;;;;;;;;;;;;;;;;;5082585;28;20006;-70
2023/12/29 06:11:37;;;;;;;;;;;;;;;;;;5080545;28;20421;-69
2023/12/29 06:14:03;;;;;;;;;;;;;;;;;;5084659;28;19982;-68
2023/12/29 06:16:32;;;;;;;;;;;;;;;;;;5074672;28;20354;-68
2023/12/29 06:18:58;;;;;;;;;;;;;;;;;;5078700;28;19943;-68
2023/12/29 06:21:24;;;;;;;;;;;;;;;;;;5084322;28;19930;-69
2023/12/29 06:23:50;;;;;;;;;;;;;;;;;;5073333;28;19925;-69
2023/12/29 06:26:16;;;;;;;;;;;;;;;;;;5083771;28;19944;-70
2023/12/29 06:28:42;;;;;;;;;;;;;;;;;;5075015;28;20015;-69
2023/12/29 06:31:08;;;;;;;;;;;;;;;;;;5078170;28;20062;-70
2023/12/29 06:33:34;;;;;;;;;;;;;;;;;;5070485;28;19924;-69
2023/12/29 06:36:00;;;;;;;;;;;;;;;;;;5090036;28;19928;-68
2023/12/29 06:38:26;;;;;;;;;;;;;;;;;;5080356;28;20058;-69
2023/12/29 06:40:52;;;;;;;;;;;;;;;;;;5089716;28;20007;-68
2023/12/29 06:43:18;;;;;;;;;;;;;;;;;;5064002;28;19924;-69
2023/12/29 06:45:44;;;;;;;;;;;;;;;;;;5086022;28;19984;-68
2023/12/29 06:48:10;;;;;;;;;;;;;;;;;;5088706;28;20329;-69
2023/12/29 06:50:38;;;;;;;;;;;;;;;;;;5086089;28;20472;-69
2023/12/29 06:53:04;;;;;;;;;;;;;;;;;;5088390;28;19973;-69
2023/12/29 06:55:30;;;;;;;;;;;;;;;;;;5073330;28;19928;-69
2023/12/29 06:57:56;;;;;;;;;;;;;;;;;;5089398;28;19959;-69
2023/12/29 07:00:22;;;;;;;;;;;;;;;;;;5083603;28;19975;-68
2023/12/29 07:02:48;;;;;;;;;;;;;;;;;;5085643;28;19960;-69
2023/12/29 07:05:14;;;;;;;;;;;;;;;;;;5090137;28;20420;-69
2023/12/29 07:07:40;;;;;;;;;;;;;;;;;;5087635;28;19932;-68
2023/12/29 07:10:06;;;;;;;;;;;;;;;;;;5086816;28;20263;-68
2023/12/29 07:12:32;;;;;;;;;;;;;;;;;;5085757;28;20002;-69
2023/12/29 07:14:58;;;;;;;;;;;;;;;;;;5090654;28;19920;-69
2023/12/29 07:17:24;;;;;;;;;;;;;;;;;;5084783;28;19924;-70
2023/12/29 07:19:50;;;;;;;;;;;;;;;;;;5089878;28;19920;-69
2023/12/29 07:22:16;;;;;;;;;;;;;;;;;;5091296;28;19920;-69
2023/12/29 07:24:42;;;;;;;;;;;;;;;;;;5088507;28;20388;-69
2023/12/29 07:27:08;;;;;;;;;;;;;;;;;;5090868;28;20316;-69
2023/12/29 07:29:34;;;;;;;;;;;;;;;;;;5073612;28;19955;-69
2023/12/29 07:31:59;;;;;;;;;;;;;;;;;;5087863;28;19920;-69
2023/12/29 07:34:25;;;;;;;;;;;;;;;;;;5089458;28;20321;-69
2023/12/29 07:36:51;;;;;;;;;;;;;;;;;;5090827;28;19928;-69
2023/12/29 07:39:17;;;;;;;;;;;;;;;;;;5084371;28;20350;-68
2023/12/29 07:41:43;;;;;;;;;;;;;;;;;;5074003;28;19963;-69
2023/12/29 07:44:10;;;;;;;;;;;;;;;;;;5082849;28;20365;-69
2023/12/29 07:46:36;;;;;;;;;;;;;;;;;;5087102;28;19920;-69
2023/12/29 07:49:02;;;;;;;;;;;;;;;;;;5093851;28;19927;-69
2023/12/29 07:51:27;;;;;;;;;;;;;;;;;;5093462;28;20036;-69
2023/12/29 07:53:53;;;;;;;;;;;;;;;;;;5059957;28;19924;-70
2023/12/29 07:56:19;;;;;;;;;;;;;;;;;;5124542;22;20012;-67
2023/12/29 07:58:45;;;;;;;;;;;;;;;;;;5112825;28;19935;-68
2023/12/29 08:01:11;;;;;;;;;;;;;;;;;;5102941;28;20659;-67
2023/12/29 08:03:37;;;;;;;;;;;;;;;;;;5113201;28;19923;-68
2023/12/29 08:06:03;;;;;;;;;;;;;;;;;;5112793;28;19954;-68
2023/12/29 08:08:29;;;;;;;;;;;;;;;;;;5111221;28;20284;-67
2023/12/29 08:10:55;;;;;;;;;;;;;;;;;;5114884;28;19932;-67
2023/12/29 08:13:21;;;;;;;;;;;;;;;;;;5111744;27;19930;-67
2023/12/29 08:15:47;;;;;;;;;;;;;;;;;;5106885;28;19934;-67
2023/12/29 08:18:13;;;;;;;;;;;;;;;;;;5107468;27;19920;-67
2023/12/29 08:20:39;;;;;;;;;;;;;;;;;;5104867;27;19980;-68
2023/12/29 08:23:05;;;;;;;;;;;;;;;;;;5113279;27;19928;-68
2023/12/29 08:25:31;;;;;;;;;;;;;;;;;;5113111;27;20364;-67
2023/12/29 08:27:57;;;;;;;;;;;;;;;;;;5111743;27;19923;-67
2023/12/29 08:30:23;;;;;;;;;;;;;;;;;;5096247;27;19946;-68
2023/12/29 08:32:48;;;;;;;;;;;;;;;;;;5109975;27;19927;-67
2023/12/29 08:35:14;;;;;;;;;;;;;;;;;;5118152;27;20017;-67
2023/12/29 08:37:40;;;;;;;;;;;;;;;;;;5113409;27;19926;-67
2023/12/29 08:40:07;;;;;;;;;;;;;;;;;;5108338;27;19924;-67
2023/12/29 08:42:33;;;;;;;;;;;;;;;;;;5111025;27;20018;-67
2023/12/29 08:44:59;;;;;;;;;;;;;;;;;;5115424;27;20026;-67
2023/12/29 08:47:25;;;;;;;;;;;;;;;;;;5109601;28;19928;-67
2023/12/29 08:49:54;;;;;;;;;;;;;;;;;;5100663;27;19924;-67
2023/12/29 08:52:20;;;;;;;;;;;;;;;;;;5112843;27;19928;-67
2023/12/29 08:54:46;;;;;;;;;;;;;;;;;;5094144;28;19920;-67
2023/12/29 08:57:12;;;;;;;;;;;;;;;;;;5103168;28;20381;-67
2023/12/29 08:59:38;;;;;;;;;;;;;;;;;;5097698;27;19947;-67
2023/12/29 09:02:03;;;;;;;;;;;;;;;;;;5094995;28;19920;-66
2023/12/29 09:04:29;;;;;;;;;;;;;;;;;;5099183;27;20563;-67
2023/12/29 09:06:55;;;;;;;;;;;;;;;;;;5110276;27;19924;-67
2023/12/29 09:09:21;;;;;;;;;;;;;;;;;;5103228;27;19928;-67
2023/12/29 09:11:47;;;;;;;;;;;;;;;;;;5115192;27;19949;-66
2023/12/29 09:14:13;;;;;;;;;;;;;;;;;;5108087;27;19923;-67
2023/12/29 09:16:40;;;;;;;;;;;;;;;;;;5107606;27;20388;-66
2023/12/29 09:19:06;;;;;;;;;;;;;;;;;;5104650;27;19923;-67
2023/12/29 09:21:32;;;;;;;;;;;;;;;;;;5109606;28;19924;-67
2023/12/29 09:23:58;;;;;;;;;;;;;;;;;;5109529;28;20392;-67
2023/12/29 09:26:24;;;;;;;;;;;;;;;;;;5102244;27;19919;-67
2023/12/29 09:28:50;;;;;;;;;;;;;;;;;;5106640;28;19997;-66
2023/12/29 09:31:16;;;;;;;;;;;;;;;;;;5102211;27;19928;-66
2023/12/29 09:33:42;;;;;;;;;;;;;;;;;;5102124;27;19965;-66
2023/12/29 09:36:08;;;;;;;;;;;;;;;;;;5112132;27;19998;-66
2023/12/29 09:38:34;;;;;;;;;;;;;;;;;;5109648;27;20479;-67
2023/12/29 09:41:00;;;;;;;;;;;;;;;;;;5110198;28;19924;-67
2023/12/29 09:43:26;;;;;;;;;;;;;;;;;;5111403;28;20399;-67
2023/12/29 09:45:51;;;;;;;;;;;;;;;;;;5108069;28;20008;-66
2023/12/29 09:48:19;;;;;;;;;;;;;;;;;;5106728;28;19931;-66
2023/12/29 09:50:45;;;;;;;;;;;;;;;;;;5106803;28;19927;-68
2023/12/29 09:53:11;;;;;;;;;;;;;;;;;;5113024;28;19965;-67
2023/12/29 09:55:37;;;;;;;;;;;;;;;;;;5090716;28;19926;-67
2023/12/29 09:58:03;;;;;;;;;;;;;;;;;;5108426;28;19924;-67
2023/12/29 10:00:29;;;;;;;;;;;;;;;;;;5115055;27;19993;-67
2023/12/29 10:02:55;;;;;;;;;;;;;;;;;;5113948;27;19927;-68
2023/12/29 10:05:21;;;;;;;;;;;;;;;;;;5103980;28;19920;-68
2023/12/29 10:07:47;;;;;;;;;;;;;;;;;;5108907;28;19959;-67
2023/12/29 10:10:13;;;;;;;;;;;;;;;;;;5109048;28;19934;-68
2023/12/29 10:12:40;;;;;;;;;;;;;;;;;;5100325;28;20284;-68
2023/12/29 10:15:07;;;;;;;;;;;;;;;;;;5105698;27;20019;-67
2023/12/29 10:17:32;;;;;;;;;;;;;;;;;;5111921;28;20361;-68
2023/12/29 10:19:59;;;;;;;;;;;;;;;;;;5110429;28;19923;-68
2023/12/29 10:22:25;;;;;;;;;;;;;;;;;;5110049;28;19923;-67
2023/12/29 10:24:50;;;;;;;;;;;;;;;;;;5104842;28;20002;-68
2023/12/29 10:27:16;;;;;;;;;;;;;;;;;;5107555;28;20381;-68
2023/12/29 10:29:42;;;;;;;;;;;;;;;;;;5109039;28;20274;-68
2023/12/29 10:32:09;;;;;;;;;;;;;;;;;;5095009;28;19920;-68
2023/12/29 10:34:35;;;;;;;;;;;;;;;;;;5110228;28;20325;-68
2023/12/29 10:37:03;;;;;;;;;;;;;;;;;;5108942;28;20039;-68
2023/12/29 10:39:29;;;;;;;;;;;;;;;;;;5102478;27;19926;-68
2023/12/29 10:41:55;;;;;;;;;;;;;;;;;;5107098;28;19969;-67
2023/12/29 10:44:21;;;;;;;;;;;;;;;;;;5091219;28;19923;-68
2023/12/29 10:46:46;;;;;;;;;;;;;;;;;;5106285;28;20456;-68
2023/12/29 10:49:13;;;;;;;;;;;;;;;;;;5106796;28;19949;-68
2023/12/29 10:51:39;;;;;;;;;;;;;;;;;;5117165;27;19934;-68
2023/12/29 10:54:04;;;;;;;;;;;;;;;;;;5103289;28;19928;-70
2023/12/29 10:56:30;;;;;;;;;;;;;;;;;;5106844;28;19931;-70
2023/12/29 10:58:56;;;;;;;;;;;;;;;;;;5110906;28;20048;-70
2023/12/29 11:01:23;;;;;;;;;;;;;;;;;;5105702;28;20054;-70
2023/12/29 11:03:49;;;;;;;;;;;;;;;;;;5101499;28;20373;-70
2023/12/29 11:06:15;;;;;;;;;;;;;;;;;;5100647;27;19939;-70
2023/12/29 11:08:41;;;;;;;;;;;;;;;;;;5110974;28;19931;-67
2023/12/29 11:11:07;;;;;;;;;;;;;;;;;;5110886;28;19924;-69
2023/12/29 11:13:35;;;;;;;;;;;;;;;;;;5111527;28;20375;-69
2023/12/29 11:16:01;;;;;;;;;;;;;;;;;;5108719;28;19957;-70
2023/12/29 11:18:27;;;;;;;;;;;;;;;;;;5105683;28;20589;-70
2023/12/29 11:20:53;;;;;;;;;;;;;;;;;;5089270;28;19923;-69
2023/12/29 11:23:19;;;;;;;;;;;;;;;;;;5106787;28;19920;-69
2023/12/29 11:25:48;;;;;;;;;;;;;;;;;;5111247;28;19924;-69
2023/12/29 11:28:15;;;;;;;;;;;;;;;;;;5108072;28;19924;-69
2023/12/29 11:30:41;;;;;;;;;;;;;;;;;;5104048;28;19930;-69
2023/12/29 11:33:07;;;;;;;;;;;;;;;;;;5100773;28;19920;-69
2023/12/29 11:35:33;;;;;;;;;;;;;;;;;;5105144;28;19999;-70
2023/12/29 11:37:58;;;;;;;;;;;;;;;;;;5106343;28;20432;-69
2023/12/29 11:40:24;;;;;;;;;;;;;;;;;;5110588;28;20220;-69
2023/12/29 11:42:50;;;;;;;;;;;;;;;;;;5110758;28;20009;-69
2023/12/29 11:45:16;;;;;;;;;;;;;;;;;;5105896;28;19963;-69
2023/12/29 11:47:42;;;;;;;;;;;;;;;;;;5110018;28;19992;-69
2023/12/29 11:50:10;;;;;;;;;;;;;;;;;;5105144;28;20092;-70
2023/12/29 11:52:36;;;;;;;;;;;;;;;;;;5110218;28;19923;-69
2023/12/29 11:55:02;;;;;;;;;;;;;;;;;;5109173;28;19968;-69
2023/12/29 11:57:27;;;;;;;;;;;;;;;;;;5113657;28;19920;-70
2023/12/29 11:59:53;;;;;;;;;;;;;;;;;;5117505;28;20320;-70
2023/12/29 12:02:19;;;;;;;;;;;;;;;;;;5110730;28;19920;-70
2023/12/29 12:04:45;;;;;;;;;;;;;;;;;;5107714;28;19930;-69
2023/12/29 12:07:11;;;;;;;;;;;;;;;;;;5105251;28;19926;-69
2023/12/29 12:09:37;;;;;;;;;;;;;;;;;;5111935;28;19982;-70
2023/12/29 12:12:03;;;;;;;;;;;;;;;;;;5103699;28;20364;-70
2023/12/29 12:14:29;;;;;;;;;;;;;;;;;;5109307;28;19957;-70
2023/12/29 12:16:55;;;;;;;;;;;;;;;;;;5102373;28;19970;-70
2023/12/29 12:19:24;;;;;;;;;;;;;;;;;;5106221;28;19963;-70
2023/12/29 12:21:49;;;;;;;;;;;;;;;;;;5111027;28;20323;-70
2023/12/29 12:24:15;;;;;;;;;;;;;;;;;;5107850;28;19973;-69
2023/12/29 12:26:41;;;;;;;;;;;;;;;;;;5113225;28;19919;-69
2023/12/29 12:29:07;;;;;;;;;;;;;;;;;;5111414;28;20412;-69
2023/12/29 12:31:33;;;;;;;;;;;;;;;;;;5112416;28;20009;-69
2023/12/29 12:34:04;;;;;;;;;;;;;;;;;;5084653;28;19931;-70
2023/12/29 12:36:30;;;;;;;;;;;;;;;;;;5107134;28;19926;-70
2023/12/29 12:38:56;;;;;;;;;;;;;;;;;;5114721;28;19920;-69
2023/12/29 12:41:25;;;;;;;;;;;;;;;;;;5106657;28;19927;-68
2023/12/29 12:43:51;;;;;;;;;;;;;;;;;;5113917;28;19947;-69
2023/12/29 12:46:17;;;;;;;;;;;;;;;;;;5113266;28;20276;-69
2023/12/29 12:48:43;;;;;;;;;;;;;;;;;;5112199;28;19920;-68
2023/12/29 12:51:09;;;;;;;;;;;;;;;;;;5108864;27;20322;-68
2023/12/29 12:53:35;;;;;;;;;;;;;;;;;;5113757;28;19988;-68
2023/12/29 12:56:03;;;;;;;;;;;;;;;;;;5112448;28;19927;-69
2023/12/29 12:58:29;;;;;;;;;;;;;;;;;;5109784;27;19924;-69
2023/12/29 13:00:54;;;;;;;;;;;;;;;;;;5114061;28;19924;-68
2023/12/29 13:03:20;;;;;;;;;;;;;;;;;;5114152;28;19932;-68
2023/12/29 13:05:46;;;;;;;;;;;;;;;;;;5106080;28;19931;-68
2023/12/29 13:08:12;;;;;;;;;;;;;;;;;;5112397;27;19919;-68
2023/12/29 13:10:38;;;;;;;;;;;;;;;;;;5108472;27;19928;-69
2023/12/29 13:13:04;;;;;;;;;;;;;;;;;;5112539;27;19923;-68
2023/12/29 13:15:30;;;;;;;;;;;;;;;;;;5107101;28;19939;-68
2023/12/29 13:17:56;;;;;;;;;;;;;;;;;;5113752;28;19927;-69
2023/12/29 13:20:22;;;;;;;;;;;;;;;;;;5089388;28;19938;-69
2023/12/29 13:22:48;;;;;;;;;;;;;;;;;;5106021;27;19949;-69
2023/12/29 13:25:14;;;;;;;;;;;;;;;;;;5103495;27;20425;-69
2023/12/29 13:27:40;;;;;;;;;;;;;;;;;;5112127;28;21191;-69
2023/12/29 13:30:06;;;;;;;;;;;;;;;;;;5113181;27;19930;-69
2023/12/29 13:32:34;;;;;;;;;;;;;;;;;;5106233;28;19987;-69
2023/12/29 13:35:00;;;;;;;;;;;;;;;;;;5106213;27;20026;-69
2023/12/29 13:37:26;;;;;;;;;;;;;;;;;;5104216;28;19920;-67
2023/12/29 13:39:52;;;;;;;;;;;;;;;;;;5107701;27;19924;-68
2023/12/29 13:42:18;;;;;;;;;;;;;;;;;;5121079;27;19927;-68
2023/12/29 13:44:44;;;;;;;;;;;;;;;;;;5108220;28;19946;-68
2023/12/29 13:47:10;;;;;;;;;;;;;;;;;;5117080;27;20370;-68
2023/12/29 13:49:36;;;;;;;;;;;;;;;;;;5118691;27;20003;-68
2023/12/29 13:52:02;;;;;;;;;;;;;;;;;;5108959;28;19977;-68
2023/12/29 13:54:28;;;;;;;;;;;;;;;;;;5095566;27;19924;-67
2023/12/29 13:56:54;;;;;;;;;;;;;;;;;;5111376;27;19920;-68
2023/12/29 13:59:20;;;;;;;;;;;;;;;;;;5104356;27;19924;-68
2023/12/29 14:01:46;;;;;;;;;;;;;;;;;;5099553;28;20266;-69
2023/12/29 14:04:12;;;;;;;;;;;;;;;;;;5109092;28;19933;-69
2023/12/29 14:06:38;;;;;;;;;;;;;;;;;;5100119;28;19920;-69
2023/12/29 14:09:04;;;;;;;;;;;;;;;;;;5098004;28;19935;-69
2023/12/29 14:11:32;;;;;;;;;;;;;;;;;;5103979;28;19959;-69
2023/12/29 14:13:58;;;;;;;;;;;;;;;;;;5106934;28;19919;-69
2023/12/29 14:16:24;;;;;;;;;;;;;;;;;;5111071;28;19972;-69
2023/12/29 14:18:50;;;;;;;;;;;;;;;;;;5098738;27;19928;-69
2023/12/29 14:21:16;;;;;;;;;;;;;;;;;;5103605;28;20006;-68
2023/12/29 14:23:42;;;;;;;;;;;;;;;;;;5111933;28;20086;-69
2023/12/29 14:26:08;;;;;;;;;;;;;;;;;;5100549;28;20322;-69
2023/12/29 14:28:34;;;;;;;;;;;;;;;;;;5096463;28;20018;-70
2023/12/29 14:30:59;;;;;;;;;;;;;;;;;;5113376;27;19928;-67
2023/12/29 14:33:25;;;;;;;;;;;;;;;;;;5101098;28;20345;-68
2023/12/29 14:35:51;;;;;;;;;;;;;;;;;;5090278;28;19924;-68
2023/12/29 14:38:17;;;;;;;;;;;;;;;;;;5093975;27;20114;-69
2023/12/29 14:40:43;;;;;;;;;;;;;;;;;;5101270;27;19924;-68
2023/12/29 14:43:09;;;;;;;;;;;;;;;;;;5108405;27;21290;-68
2023/12/29 14:45:35;;;;;;;;;;;;;;;;;;5097978;27;20400;-70
2023/12/29 14:48:01;;;;;;;;;;;;;;;;;;5085094;27;19919;-69
2023/12/29 14:50:27;;;;;;;;;;;;;;;;;;5104885;28;19939;-69
2023/12/29 14:52:53;;;;;;;;;;;;;;;;;;5108551;28;19920;-69
2023/12/29 14:55:20;;;;;;;;;;;;;;;;;;5108319;28;20629;-70
2023/12/29 14:57:46;;;;;;;;;;;;;;;;;;5109014;28;19939;-69
2023/12/29 15:00:12;;;;;;;;;;;;;;;;;;5105388;28;19940;-69
2023/12/29 15:02:38;;;;;;;;;;;;;;;;;;5109634;28;19924;-69
2023/12/29 15:05:04;;;;;;;;;;;;;;;;;;5107183;28;19924;-69
2023/12/29 15:07:30;;;;;;;;;;;;;;;;;;5100700;28;19927;-69
2023/12/29 15:09:56;;;;;;;;;;;;;;;;;;5101056;28;19928;-69
2023/12/29 15:12:22;;;;;;;;;;;;;;;;;;5099005;27;19931;-69
2023/12/29 15:14:48;;;;;;;;;;;;;;;;;;5104585;28;19931;-69
2023/12/29 15:17:14;;;;;;;;;;;;;;;;;;5103674;28;20359;-69
2023/12/29 15:19:40;;;;;;;;;;;;;;;;;;5101454;28;19928;-69
2023/12/29 15:22:06;;;;;;;;;;;;;;;;;;5104423;28;19923;-69
2023/12/29 15:24:32;;;;;;;;;;;;;;;;;;5098947;28;20024;-68
2023/12/29 15:26:58;;;;;;;;;;;;;;;;;;5103861;28;19962;-69
2023/12/29 15:29:24;;;;;;;;;;;;;;;;;;5104635;28;20006;-69
2023/12/29 15:31:50;;;;;;;;;;;;;;;;;;5103956;28;19964;-68
2023/12/29 15:34:15;;;;;;;;;;;;;;;;;;5101413;28;20002;-68
2023/12/29 15:36:41;;;;;;;;;;;;;;;;;;5073245;28;19924;-68
2023/12/29 15:39:08;;;;;;;;;;;;;;;;;;5098888;28;19927;-68
2023/12/29 15:41:34;;;;;;;;;;;;;;;;;;5097726;28;19924;-69
2023/12/29 15:44:00;;;;;;;;;;;;;;;;;;5103841;28;19965;-68
2023/12/29 15:46:26;;;;;;;;;;;;;;;;;;5106815;28;19936;-69
2023/12/29 15:48:52;;;;;;;;;;;;;;;;;;5101913;28;20389;-69
2023/12/29 15:51:17;;;;;;;;;;;;;;;;;;5110477;28;19928;-69
2023/12/29 15:53:43;;;;;;;;;;;;;;;;;;5112744;27;19927;-69
2023/12/29 15:56:09;;;;;;;;;;;;;;;;;;5100650;27;20043;-69
2023/12/29 15:58:35;;;;;;;;;;;;;;;;;;5103518;27;19932;-69
2023/12/29 16:01:01;;;;;;;;;;;;;;;;;;5104509;28;19924;-69
2023/12/29 16:03:27;;;;;;;;;;;;;;;;;;5105102;28;20310;-68
2023/12/29 16:05:53;;;;;;;;;;;;;;;;;;5099533;28;19977;-68
2023/12/29 16:08:19;;;;;;;;;;;;;;;;;;5111710;28;19923;-68
2023/12/29 16:10:45;;;;;;;;;;;;;;;;;;5083622;27;19953;-69
2023/12/29 16:13:11;;;;;;;;;;;;;;;;;;5098930;27;20041;-69
2023/12/29 16:15:37;;;;;;;;;;;;;;;;;;5107078;27;20477;-69
2023/12/29 16:18:03;;;;;;;;;;;;;;;;;;5107686;28;20014;-68
2023/12/29 16:20:29;;;;;;;;;;;;;;;;;;5102950;27;19934;-68
2023/12/29 16:22:55;;;;;;;;;;;;;;;;;;5108769;27;20288;-69
2023/12/29 16:25:21;;;;;;;;;;;;;;;;;;5104232;27;19927;-69
2023/12/29 16:27:47;;;;;;;;;;;;;;;;;;5099039;27;19924;-69
2023/12/29 16:30:13;;;;;;;;;;;;;;;;;;5110531;28;19928;-69
2023/12/29 16:32:39;;;;;;;;;;;;;;;;;;5112308;27;19927;-69
2023/12/29 16:35:05;;;;;;;;;;;;;;;;;;5109022;27;19988;-69
2023/12/29 16:37:30;;;;;;;;;;;;;;;;;;5102425;27;19923;-69